Time;durP1;ratioP1;P1;durP2;ratioP2;P2;SDS_P1;SDS_P2;PMS_P1;PMS_P2;Temp;Humidity;BMP_temperature;BMP_pressure;BME280_temperature;BME280_humidity;BME280_pressure;Samples;Min_cycle;Max_cycle;Signal;HPM_P1;HPM_P2
2023/06/07 00:01:51;;;;;;;13.20;5.50;;;;;;;17.44;71.86;100360.08;110127;1278;22236;-57
2023/06/07 00:04:22;;;;;;;14.90;5.40;;;;;;;17.45;72.10;100359.51;110140;1267;22239;-57
2023/06/07 00:07:00;;;;;;;13.10;5.50;;;;;;;17.45;71.94;100357.05;110139;1271;22151;-55
2023/06/07 00:09:32;;;;;;;12.70;5.70;;;;;;;17.45;72.19;100352.98;110151;1266;22323;-59
2023/06/07 00:12:03;;;;;;;18.40;5.80;;;;;;;17.46;72.31;100355.23;110146;1274;22330;-58
2023/06/07 00:14:34;;;;;;;13.00;6.50;;;;;;;17.47;72.47;100355.48;110158;1262;22343;-58
2023/06/07 00:17:08;;;;;;;13.90;5.00;;;;;;;17.47;72.55;100356.01;110144;1278;22311;-58
2023/06/07 00:19:39;;;;;;;12.20;5.00;;;;;;;17.44;72.68;100356.23;110162;1276;22996;-58
2023/06/07 00:22:12;;;;;;;13.00;5.50;;;;;;;17.42;72.72;100354.70;108799;1271;23254;-57
2023/06/07 00:24:43;;;;;;;14.40;5.30;;;;;;;17.42;72.80;100353.52;106082;1277;25341;-58
2023/06/07 00:27:14;;;;;;;14.40;5.60;;;;;;;17.42;72.89;100357.64;106134;1278;22578;-56
2023/06/07 00:29:45;;;;;;;15.10;5.70;;;;;;;17.41;72.92;100358.30;106110;1278;22530;-57
2023/06/07 00:32:16;;;;;;;13.60;5.60;;;;;;;17.42;72.88;100359.59;106125;1278;24072;-55
2023/06/07 00:34:47;;;;;;;13.90;5.70;;;;;;;17.42;72.83;100359.02;106072;1278;22527;-57
2023/06/07 00:37:18;;;;;;;16.40;5.60;;;;;;;17.43;72.92;100367.21;106207;1278;22574;-58
2023/06/07 00:39:49;;;;;;;12.10;5.30;;;;;;;17.44;73.04;100369.98;106161;1270;24268;-58
2023/06/07 00:42:20;;;;;;;13.30;5.90;;;;;;;17.43;73.24;100367.59;106111;1274;22523;-58
2023/06/07 00:44:51;;;;;;;14.90;6.30;;;;;;;17.41;73.23;100364.52;106169;1276;22804;-57
2023/06/07 00:47:22;;;;;;;13.70;6.40;;;;;;;17.41;73.37;100368.92;102105;1278;5414209;-56
2023/06/07 00:49:54;;;;;;;13.60;6.10;;;;;;;17.38;73.44;100368.64;106138;1271;26658;-57
2023/06/07 00:52:25;;;;;;;11.10;5.30;;;;;;;17.37;73.56;100373.36;106079;1263;22523;-58
2023/06/07 00:54:58;;;;;;;16.10;6.30;;;;;;;17.35;73.63;100370.41;110129;1266;22168;-57
2023/06/07 00:57:29;;;;;;;15.50;5.20;;;;;;;17.34;73.94;100372.77;106031;1278;22517;-58
2023/06/07 01:00:01;;;;;;;14.80;6.70;;;;;;;17.33;74.03;100371.20;110136;1271;22788;-58
2023/06/07 01:02:34;;;;;;;14.00;6.10;;;;;;;17.31;74.16;100370.95;110151;1264;22867;-56
2023/06/07 01:05:06;;;;;;;14.90;5.80;;;;;;;17.29;74.16;100369.93;110174;1278;22196;-57
2023/06/07 01:07:37;;;;;;;14.20;5.80;;;;;;;17.28;74.35;100370.39;110149;1271;22263;-57
2023/06/07 01:10:10;;;;;;;16.10;6.50;;;;;;;17.27;74.38;100371.02;110158;1271;22288;-58
2023/06/07 01:12:44;;;;;;;17.00;5.90;;;;;;;17.25;74.51;100372.83;110156;1271;22313;-59
2023/06/07 01:15:15;;;;;;;15.40;6.10;;;;;;;17.22;74.67;100370.95;110145;1274;22225;-58
2023/06/07 01:17:47;;;;;;;14.00;6.70;;;;;;;17.20;74.75;100370.75;110142;1274;23042;-59
2023/06/07 01:20:23;;;;;;;13.80;6.00;;;;;;;17.19;74.92;100369.48;110157;1265;22446;-58
2023/06/07 01:22:58;;;;;;;12.60;5.80;;;;;;;17.17;74.96;100366.66;110138;1278;22250;-57
2023/06/07 01:25:29;;;;;;;15.10;6.20;;;;;;;17.18;74.80;100364.30;107074;1276;25304;-58
2023/06/07 01:28:02;;;;;;;15.40;5.60;;;;;;;17.19;74.92;100365.84;106089;1271;22605;-57
2023/06/07 01:30:33;;;;;;;13.70;5.60;;;;;;;17.19;75.09;100359.27;106050;1277;24297;-55
2023/06/07 01:33:07;;;;;;;15.70;6.10;;;;;;;17.18;74.82;100362.51;110149;1268;22151;-58
2023/06/07 01:35:39;;;;;;;13.20;5.40;;;;;;;17.18;74.98;100364.35;109008;1272;22542;-57
2023/06/07 01:38:11;;;;;;;13.70;5.80;;;;;;;17.17;75.03;100363.55;106143;1278;22533;-58
2023/06/07 01:40:44;;;;;;;12.60;5.80;;;;;;;17.16;74.84;100368.36;106076;1278;24398;-57
2023/06/07 01:43:16;;;;;;;15.00;5.70;;;;;;;17.15;75.13;100363.81;110165;1267;22220;-56
2023/06/07 01:45:49;;;;;;;15.40;5.80;;;;;;;17.12;75.14;100365.30;110146;1274;23077;-57
2023/06/07 01:48:20;;;;;;;14.40;6.70;;;;;;;17.10;75.04;100363.42;110160;1274;23063;-57
2023/06/07 01:50:50;;;;;;;13.70;5.80;;;;;;;17.08;75.14;100365.84;110117;1267;22186;-58
2023/06/07 01:53:21;;;;;;;11.90;4.60;;;;;;;17.03;75.40;100361.00;110143;1270;23288;-56
2023/06/07 01:55:59;;;;;;;18.00;5.70;;;;;;;17.00;75.45;100364.19;110131;1278;23066;-59
2023/06/07 01:58:35;;;;;;;17.30;6.10;;;;;;;16.92;76.04;100362.23;110167;1262;22327;-58
2023/06/07 02:01:17;;;;;;;18.90;6.40;;;;;;;16.87;76.10;100360.61;110166;1273;22610;-56
2023/06/07 02:03:53;;;;;;;17.70;5.90;;;;;;;16.86;76.17;100358.72;110171;1276;22252;-58
2023/06/07 02:06:33;;;;;;;14.90;5.60;;;;;;;16.85;76.32;100359.55;110117;1268;22216;-59
2023/06/07 02:09:07;;;;;;;;;;;;;;;16.83;76.30;100360.16;110146;1268;22440;-58
2023/06/07 02:11:40;;;;;;;13.50;5.50;;;;;;;16.81;76.50;100360.17;107120;1278;22552;-56
2023/06/07 02:14:12;;;;;;;14.60;5.90;;;;;;;16.80;76.44;100356.35;106080;1278;22673;-58
2023/06/07 02:16:44;;;;;;;17.70;6.30;;;;;;;16.79;76.41;100352.91;106060;1278;22631;-55
2023/06/07 02:19:16;;;;;;;15.60;6.20;;;;;;;16.78;76.40;100356.24;106026;1277;25532;-58
2023/06/07 02:21:47;;;;;;;16.50;6.10;;;;;;;16.78;76.15;100358.09;106068;1261;22534;-59
2023/06/07 02:24:19;;;;;;;16.70;6.20;;;;;;;16.79;76.59;100361.98;106091;1278;25446;-58
2023/06/07 02:26:50;;;;;;;18.70;6.30;;;;;;;16.79;76.46;100363.98;110132;1273;22360;-58
2023/06/07 02:29:21;;;;;;;17.50;6.10;;;;;;;16.78;76.55;100362.97;110146;1270;22439;-59
2023/06/07 02:31:54;;;;;;;14.90;5.80;;;;;;;16.77;76.61;100365.59;110172;1278;22191;-60
2023/06/07 02:34:25;;;;;;;14.20;5.50;;;;;;;16.77;76.40;100365.34;110187;1271;22202;-60
2023/06/07 02:36:56;;;;;;;15.30;5.90;;;;;;;16.77;76.74;100367.79;110133;1266;22248;-59
2023/06/07 02:39:26;;;;;;;19.20;5.60;;;;;;;16.74;76.76;100365.75;110140;1274;22328;-60
2023/06/07 02:41:58;;;;;;;12.70;5.50;;;;;;;16.74;76.79;100369.28;110173;1274;22207;-59
2023/06/07 02:44:29;;;;;;;13.90;5.30;;;;;;;16.74;76.81;100373.38;110151;1270;22435;-60
2023/06/07 02:46:59;;;;;;;17.90;5.70;;;;;;;16.74;76.84;100374.20;110154;1276;23014;-58
2023/06/07 02:49:30;;;;;;;17.60;6.00;;;;;;;16.74;76.95;100373.48;106158;1265;24253;-59
2023/06/07 02:52:01;;;;;;;13.40;5.10;;;;;;;16.74;76.99;100372.81;106097;1277;24270;-59
2023/06/07 02:54:34;;;;;;;15.10;5.60;;;;;;;16.73;76.97;100375.59;110140;1266;22402;-59
2023/06/07 02:57:06;;;;;;;13.60;5.10;;;;;;;16.71;77.03;100379.09;110139;1275;22280;-59
2023/06/07 02:59:39;;;;;;;15.50;5.70;;;;;;;16.71;76.88;100382.11;110199;1266;22166;-59
2023/06/07 03:02:10;;;;;;;13.90;5.40;;;;;;;16.69;77.05;100378.52;110173;1264;22225;-59
2023/06/07 03:04:43;;;;;;;15.50;5.40;;;;;;;16.68;77.05;100376.13;110194;1274;22216;-59
2023/06/07 03:07:15;;;;;;;14.50;4.90;;;;;;;16.68;77.00;100379.05;110151;1273;22847;-59
2023/06/07 03:09:47;;;;;;;12.40;5.00;;;;;;;16.68;77.08;100376.08;110168;1274;22347;-59
2023/06/07 03:12:18;;;;;;;16.70;6.90;;;;;;;16.66;77.02;100376.64;110185;1267;22212;-59
2023/06/07 03:14:49;;;;;;;14.80;5.70;;;;;;;16.66;76.86;100379.83;110171;1274;22266;-58
2023/06/07 03:17:20;;;;;;;14.20;6.10;;;;;;;16.66;76.92;100379.31;110221;1262;22319;-59
2023/06/07 03:19:50;;;;;;;13.30;5.50;;;;;;;16.68;76.94;100387.66;110176;1274;22286;-58
2023/06/07 03:22:21;;;;;;;15.20;6.00;;;;;;;16.69;76.98;100386.67;109231;1274;22521;-57
2023/06/07 03:24:54;;;;;;;15.50;5.80;;;;;;;16.68;77.00;100391.55;106130;1276;22662;-57
2023/06/07 03:27:27;;;;;;;21.50;7.50;;;;;;;16.68;77.13;100394.73;110182;1271;22141;-59
2023/06/07 03:29:58;;;;;;;14.20;6.40;;;;;;;16.68;77.21;100399.08;110150;1268;22304;-59
2023/06/07 03:32:29;;;;;;;18.80;6.10;;;;;;;16.67;77.24;100402.12;110179;1271;23099;-59
2023/06/07 03:35:00;;;;;;;11.70;4.60;;;;;;;16.66;77.28;100406.67;110186;1278;22139;-60
2023/06/07 03:37:31;;;;;;;13.20;5.90;;;;;;;16.66;77.26;100410.07;110172;1273;22381;-59
2023/06/07 03:40:02;;;;;;;11.80;5.00;;;;;;;16.67;77.40;100412.41;110177;1272;22326;-60
2023/06/07 03:42:33;;;;;;;15.20;5.70;;;;;;;16.66;77.27;100413.54;110158;1276;22792;-58
2023/06/07 03:45:05;;;;;;;15.00;5.90;;;;;;;16.66;77.45;100414.84;110155;1265;23017;-59
2023/06/07 03:47:37;;;;;;;15.90;5.70;;;;;;;16.67;77.41;100414.46;110171;1262;22976;-59
2023/06/07 03:50:09;;;;;;;12.20;4.90;;;;;;;16.66;77.60;100416.63;110189;1278;22303;-58
2023/06/07 03:52:40;;;;;;;13.90;5.30;;;;;;;16.66;77.76;100416.11;110170;1278;22160;-59
2023/06/07 03:55:11;;;;;;;15.60;5.80;;;;;;;16.65;77.68;100415.66;110178;1274;22273;-60
2023/06/07 03:57:42;;;;;;;18.00;6.00;;;;;;;16.63;77.66;100420.53;110185;1266;22336;-59
2023/06/07 04:00:17;;;;;;;14.70;5.40;;;;;;;16.64;77.55;100419.19;110174;1274;22174;-59
2023/06/07 04:02:48;;;;;;;17.30;6.10;;;;;;;16.65;77.72;100417.30;110196;1268;22978;-59
2023/06/07 04:05:19;;;;;;;14.00;4.80;;;;;;;16.65;77.85;100418.88;110209;1270;22340;-59
2023/06/07 04:07:49;;;;;;;11.80;4.80;;;;;;;16.64;77.87;100415.25;110153;1276;22173;-58
2023/06/07 04:10:20;;;;;;;15.50;6.00;;;;;;;16.65;78.02;100414.48;110197;1274;22178;-59
2023/06/07 04:12:51;;;;;;;12.90;5.30;;;;;;;16.65;78.23;100417.14;110212;1269;22189;-59
2023/06/07 04:15:22;;;;;;;13.50;5.50;;;;;;;16.64;78.23;100413.91;110230;1270;22221;-58
2023/06/07 04:17:54;;;;;;;11.40;4.30;;;;;;;16.66;78.37;100414.64;110158;1268;22220;-59
2023/06/07 04:20:25;;;;;;;14.60;5.00;;;;;;;16.67;78.41;100409.70;110164;1270;22186;-60
2023/06/07 04:22:56;;;;;;;16.30;4.80;;;;;;;16.69;78.38;100412.92;110206;1261;23054;-59
2023/06/07 04:25:32;;;;;;;11.00;4.50;;;;;;;16.71;77.79;100409.43;110170;1272;23388;-59
2023/06/07 04:28:03;;;;;;;14.90;5.40;;;;;;;16.72;77.98;100408.77;110169;1274;22159;-59
2023/06/07 04:30:40;;;;;;;19.00;6.10;;;;;;;16.74;77.87;100409.48;109772;1266;22535;-60
2023/06/07 04:33:17;;;;;;;12.70;4.70;;;;;;;16.76;78.16;100403.06;106078;1277;22523;-59
2023/06/07 04:35:48;;;;;;;12.40;4.50;;;;;;;16.74;78.30;100400.86;106108;1263;22640;-60
2023/06/07 04:38:20;;;;;;;13.70;4.40;;;;;;;16.74;78.35;100402.60;106143;1272;22950;-59
2023/06/07 04:40:51;;;;;;;14.00;5.10;;;;;;;16.75;78.42;100398.77;110179;1273;22200;-59
2023/06/07 04:43:23;;;;;;;17.00;5.50;;;;;;;16.76;78.48;100397.95;110195;1265;23651;-59
2023/06/07 04:45:55;;;;;;;18.00;5.40;;;;;;;16.78;78.55;100397.30;110198;1267;22874;-59
2023/06/07 04:48:26;;;;;;;16.30;5.90;;;;;;;16.82;78.46;100397.04;109561;1264;22524;-59
2023/06/07 04:51:03;;;;;;;15.10;5.00;;;;;;;16.84;78.62;100394.63;110218;1262;22392;-59
2023/06/07 04:53:36;;;;;;;17.70;6.30;;;;;;;16.86;78.50;100390.81;108414;1278;25584;-61
2023/06/07 04:56:07;;;;;;;17.30;6.30;;;;;;;16.88;78.33;100402.29;110197;1276;22303;-59
2023/06/07 04:58:40;;;;;;;15.30;6.80;;;;;;;16.92;78.63;100402.84;110184;1272;22167;-59
2023/06/07 05:01:11;;;;;;;18.20;6.80;;;;;;;16.96;78.97;100397.55;110100;1271;22379;-59
2023/06/07 05:03:43;;;;;;;14.30;6.10;;;;;;;16.98;78.61;100400.45;110106;1275;23037;-59
2023/06/07 05:06:17;;;;;;;17.00;5.80;;;;;;;17.04;78.72;100402.33;110109;1273;22333;-60
2023/06/07 05:08:47;;;;;;;16.20;6.40;;;;;;;17.08;78.82;100397.64;110065;1273;22216;-60
2023/06/07 05:11:18;;;;;;;12.90;5.60;;;;;;;17.12;78.56;100397.73;110170;1270;22394;-59
2023/06/07 05:13:49;;;;;;;18.00;5.80;;;;;;;17.16;78.45;100402.06;110205;1276;23006;-59
2023/06/07 05:16:20;;;;;;;15.80;5.10;;;;;;;17.20;78.15;100408.86;110175;1271;22329;-59
2023/06/07 05:18:53;;;;;;;18.90;5.90;;;;;;;17.24;78.13;100410.02;110157;1274;22181;-59
2023/06/07 05:21:24;;;;;;;16.50;5.90;;;;;;;17.28;78.40;100410.67;110132;1275;22151;-62
2023/06/07 05:23:55;;;;;;;15.40;5.50;;;;;;;17.31;78.45;100412.77;110167;1273;22217;-60
2023/06/07 05:26:26;;;;;;;16.30;7.00;;;;;;;17.33;78.75;100417.11;110202;1266;22301;-59
2023/06/07 05:28:57;;;;;;;16.60;6.50;;;;;;;17.34;79.07;100417.77;110258;1278;22334;-60
2023/06/07 05:31:29;;;;;;;18.10;5.90;;;;;;;17.35;79.19;100422.17;110193;1272;22209;-60
2023/06/07 05:34:00;;;;;;;15.90;6.10;;;;;;;17.37;79.30;100421.35;110178;1274;22211;-60
2023/06/07 05:36:34;;;;;;;15.50;6.50;;;;;;;17.40;79.49;100421.31;110178;1267;22346;-60
2023/06/07 05:39:05;;;;;;;14.70;6.50;;;;;;;17.40;79.16;100415.88;110059;1273;22135;-60
2023/06/07 05:41:37;;;;;;;16.80;6.70;;;;;;;17.42;78.96;100419.98;110154;1272;22167;-60
2023/06/07 05:44:08;;;;;;;18.50;7.30;;;;;;;17.44;79.02;100415.75;107041;1278;24262;-59
2023/06/07 05:46:40;;;;;;;18.50;7.70;;;;;;;17.46;78.87;100420.06;106214;1274;25260;-59
2023/06/07 05:49:11;;;;;;;17.50;6.80;;;;;;;17.47;79.05;100416.81;106176;1264;24247;-58
2023/06/07 05:51:42;;;;;;;16.10;6.60;;;;;;;17.49;78.77;100422.31;106172;1263;26228;-59
2023/06/07 05:54:13;;;;;;;17.00;7.60;;;;;;;17.50;78.84;100426.78;106219;1266;22811;-59
2023/06/07 05:56:44;;;;;;;19.00;7.60;;;;;;;17.50;78.94;100423.76;106233;1276;22538;-58
2023/06/07 05:59:14;;;;;;;16.10;6.40;;;;;;;17.51;78.86;100421.85;106222;1267;22597;-58
2023/06/07 06:01:46;;;;;;;16.20;6.80;;;;;;;17.52;78.72;100421.74;106281;1278;22531;-57
2023/06/07 06:04:17;;;;;;;16.80;7.50;;;;;;;17.55;78.61;100427.30;106218;1277;25276;-57
2023/06/07 06:06:48;;;;;;;19.40;7.60;;;;;;;17.56;78.48;100428.80;106234;1277;24340;-59
2023/06/07 06:09:19;;;;;;;17.50;6.00;;;;;;;17.57;78.45;100436.45;106248;1273;24373;-58
2023/06/07 06:11:51;;;;;;;17.30;6.70;;;;;;;17.56;78.43;100430.14;106262;1273;22602;-55
2023/06/07 06:14:24;;;;;;;19.10;7.50;;;;;;;17.56;78.36;100433.32;106298;1277;25449;-56
2023/06/07 06:16:55;;;;;;;15.70;7.20;;;;;;;17.56;78.69;100430.40;110113;1278;22139;-58
2023/06/07 06:19:26;;;;;;;17.10;7.00;;;;;;;17.55;78.84;100430.55;110197;1270;22186;-59
2023/06/07 06:21:57;;;;;;;15.70;7.00;;;;;;;17.57;78.85;100431.62;110183;1270;22192;-58
2023/06/07 06:24:28;;;;;;;15.70;7.60;;;;;;;17.59;79.02;100433.95;110204;1264;22878;-57
2023/06/07 06:26:59;;;;;;;18.00;7.50;;;;;;;17.61;78.98;100428.45;110214;1274;22377;-58
2023/06/07 06:29:30;;;;;;;18.10;7.10;;;;;;;17.63;78.90;100426.19;110224;1272;22430;-60
2023/06/07 06:32:01;;;;;;;18.30;8.50;;;;;;;17.66;78.84;100428.58;110246;1278;22152;-59
2023/06/07 06:34:32;;;;;;;16.50;6.80;;;;;;;17.70;78.86;100428.05;110239;1273;22192;-59
2023/06/07 06:37:04;;;;;;;21.50;7.50;;;;;;;17.75;78.74;100427.59;110230;1274;22910;-59
2023/06/07 06:39:35;;;;;;;29.50;8.80;;;;;;;17.78;78.56;100426.34;110219;1271;22193;-59
2023/06/07 06:42:07;;;;;;;25.00;7.20;;;;;;;17.83;78.52;100428.56;110212;1271;22159;-59
2023/06/07 06:44:38;;;;;;;17.40;7.00;;;;;;;17.88;78.37;100428.84;110200;1270;23083;-59
2023/06/07 06:47:09;;;;;;;18.20;6.30;;;;;;;17.91;78.33;100433.89;110237;1278;22203;-59
2023/06/07 06:49:40;;;;;;;22.60;7.50;;;;;;;17.94;78.25;100432.98;110229;1273;22204;-59
2023/06/07 06:52:11;;;;;;;15.40;6.60;;;;;;;17.97;78.05;100434.91;110197;1265;22945;-60
2023/06/07 06:54:42;;;;;;;18.40;6.30;;;;;;;18.01;77.92;100435.81;110233;1270;22195;-59
2023/06/07 06:57:13;;;;;;;15.90;6.60;;;;;;;18.05;77.90;100437.58;110236;1274;23019;-59
2023/06/07 06:59:44;;;;;;;17.70;7.50;;;;;;;18.10;77.71;100436.46;106717;1264;25497;-57
2023/06/07 07:02:15;;;;;;;22.30;9.40;;;;;;;18.14;77.91;100432.30;106152;1273;22465;-58
2023/06/07 07:04:46;;;;;;;20.80;8.10;;;;;;;18.18;77.79;100432.84;106310;1278;24379;-59
2023/06/07 07:07:17;;;;;;;27.50;7.70;;;;;;;18.21;77.68;100433.27;106295;1264;25529;-57
2023/06/07 07:09:49;;;;;;;28.30;8.00;;;;;;;18.24;77.60;100437.37;106310;1264;22693;-57
2023/06/07 07:12:21;;;;;;;16.30;6.70;;;;;;;18.25;77.56;100441.46;106287;1278;22602;-58
2023/06/07 07:14:52;;;;;;;17.00;7.50;;;;;;;18.27;77.79;100440.93;106265;1277;22517;-59
2023/06/07 07:17:23;;;;;;;22.30;7.40;;;;;;;18.28;77.84;100439.37;110210;1270;22369;-59
2023/06/07 07:19:56;;;;;;;21.30;8.10;;;;;;;18.31;77.93;100438.95;110205;1278;22187;-59
2023/06/07 07:22:28;;;;;;;21.30;7.40;;;;;;;18.33;77.99;100441.48;110228;1273;22277;-59
2023/06/07 07:25:00;;;;;;;16.40;6.70;;;;;;;18.35;77.76;100443.01;110225;1263;22196;-60
2023/06/07 07:27:31;;;;;;;33.70;11.90;;;;;;;18.37;77.57;100450.29;110232;1270;22325;-59
2023/06/07 07:30:02;;;;;;;43.70;17.00;;;;;;;18.42;77.83;100450.05;110219;1275;23000;-59
2023/06/07 07:32:33;;;;;;;24.70;8.70;;;;;;;18.46;77.67;100450.23;110213;1271;22968;-59
2023/06/07 07:35:05;;;;;;;23.50;8.40;;;;;;;18.50;77.78;100451.54;110228;1278;22285;-59
2023/06/07 07:37:38;;;;;;;22.30;8.30;;;;;;;18.53;77.75;100445.49;110212;1276;22311;-58
2023/06/07 07:40:12;;;;;;;16.20;7.70;;;;;;;18.55;77.71;100450.86;110239;1264;22245;-59
2023/06/07 07:42:43;;;;;;;20.40;8.50;;;;;;;18.58;77.70;100449.70;110229;1273;23248;-58
2023/06/07 07:45:15;;;;;;;15.50;7.20;;;;;;;18.63;77.25;100451.88;110188;1268;22234;-58
2023/06/07 07:47:46;;;;;;;15.30;6.70;;;;;;;18.64;77.18;100453.35;110222;1270;22181;-60
2023/06/07 07:50:18;;;;;;;15.90;6.50;;;;;;;18.65;77.07;100451.22;110236;1270;22413;-60
2023/06/07 07:52:49;;;;;;;20.10;7.50;;;;;;;18.70;77.20;100447.63;110229;1277;22372;-60
2023/06/07 07:55:21;;;;;;;15.60;7.40;;;;;;;18.74;77.12;100447.12;110198;1264;22811;-60
2023/06/07 07:57:51;;;;;;;20.80;6.20;;;;;;;18.75;77.17;100448.29;110179;1267;22444;-60
2023/06/07 08:00:23;;;;;;;17.00;7.30;;;;;;;18.75;76.96;100444.39;110223;1274;22205;-59
2023/06/07 08:02:54;;;;;;;18.60;6.80;;;;;;;18.74;76.99;100447.38;110175;1273;22197;-59
2023/06/07 08:05:25;;;;;;;15.60;6.10;;;;;;;18.74;76.98;100446.35;110218;1263;22284;-60
2023/06/07 08:07:56;;;;;;;22.90;6.40;;;;;;;18.74;77.01;100448.05;110245;1278;22228;-60
2023/06/07 08:10:27;;;;;;;19.30;6.80;;;;;;;18.75;76.99;100449.21;110194;1263;22262;-60
2023/06/07 08:12:58;;;;;;;15.60;6.60;;;;;;;18.77;76.80;100451.25;110205;1276;23061;-59
2023/06/07 08:15:28;;;;;;;16.20;6.10;;;;;;;18.79;76.88;100453.65;110232;1273;22175;-60
2023/06/07 08:17:59;;;;;;;17.80;6.10;;;;;;;18.82;76.94;100456.70;110233;1271;22220;-60
2023/06/07 08:20:30;;;;;;;17.20;6.10;;;;;;;18.87;77.01;100459.07;110216;1270;22372;-60
2023/06/07 08:23:01;;;;;;;16.60;7.00;;;;;;;18.92;77.07;100455.27;110248;1278;22167;-60
2023/06/07 08:25:32;;;;;;;14.10;5.80;;;;;;;18.94;76.89;100456.10;110224;1273;22990;-59
2023/06/07 08:28:04;;;;;;;15.50;6.60;;;;;;;18.93;76.75;100455.17;110190;1271;22518;-60
2023/06/07 08:30:35;;;;;;;17.90;6.60;;;;;;;18.93;76.87;100455.09;110219;1276;22350;-60
2023/06/07 08:33:06;;;;;;;16.30;6.40;;;;;;;18.93;76.77;100459.55;110216;1270;22230;-58
2023/06/07 08:35:37;;;;;;;14.70;5.90;;;;;;;18.98;77.30;100457.29;110237;1272;22496;-60
2023/06/07 08:38:08;;;;;;;15.20;5.60;;;;;;;19.03;77.09;100455.69;110228;1267;22252;-59
2023/06/07 08:40:40;;;;;;;13.10;5.80;;;;;;;19.08;76.49;100452.33;110234;1271;22425;-60
2023/06/07 08:43:11;;;;;;;18.40;5.70;;;;;;;19.16;76.58;100450.80;110237;1271;22237;-60
2023/06/07 08:45:42;;;;;;;14.70;4.80;;;;;;;19.27;76.17;100448.38;110228;1270;22172;-60
2023/06/07 08:48:14;;;;;;;17.00;5.40;;;;;;;19.37;76.19;100446.48;110234;1272;22216;-59
2023/06/07 08:50:47;;;;;;;13.40;5.40;;;;;;;19.49;76.00;100450.59;110221;1273;22263;-60
2023/06/07 08:53:24;;;;;;;13.00;4.70;;;;;;;19.60;75.74;100447.18;110238;1262;22365;-59
2023/06/07 08:55:57;;;;;;;13.00;4.00;;;;;;;19.72;75.52;100444.95;110256;1278;22122;-60
2023/06/07 08:58:30;;;;;;;18.00;5.40;;;;;;;19.82;75.12;100441.02;110236;1273;23021;-59
2023/06/07 09:01:02;;;;;;;11.60;4.30;;;;;;;19.93;74.92;100442.97;110207;1277;22140;-60
2023/06/07 09:03:33;;;;;;;13.20;4.70;;;;;;;20.04;74.71;100440.89;110227;1268;22338;-60
2023/06/07 09:06:04;;;;;;;13.20;4.20;;;;;;;20.16;74.19;100438.98;110207;1277;22143;-60
2023/06/07 09:08:35;;;;;;;11.60;3.20;;;;;;;20.28;73.53;100437.33;110220;1264;22447;-60
2023/06/07 09:11:06;;;;;;;14.00;3.50;;;;;;;20.37;73.22;100435.51;110221;1271;22163;-59
2023/06/07 09:13:38;;;;;;;12.50;3.60;;;;;;;20.51;73.19;100441.04;110250;1276;22229;-60
2023/06/07 09:16:10;;;;;;;12.40;3.20;;;;;;;20.63;72.49;100436.30;110227;1270;22229;-60
2023/06/07 09:18:47;;;;;;;8.50;2.50;;;;;;;20.76;72.07;100438.80;110225;1270;22177;-60
2023/06/07 09:21:22;;;;;;;16.60;3.80;;;;;;;20.90;71.78;100440.60;110222;1267;23010;-60
2023/06/07 09:23:54;;;;;;;11.80;3.00;;;;;;;21.02;70.39;100437.12;110220;1263;22748;-60
2023/06/07 09:26:35;;;;;;;11.80;2.60;;;;;;;21.08;69.36;100431.33;110209;1272;22321;-60
2023/06/07 09:29:09;;;;;;;8.40;2.10;;;;;;;21.14;68.88;100431.26;110251;1278;23256;-60
2023/06/07 09:31:40;;;;;;;11.00;2.60;;;;;;;21.18;68.95;100432.16;110223;1277;22918;-60
2023/06/07 09:34:23;;;;;;;10.70;2.60;;;;;;;21.26;68.68;100429.70;110218;1275;22231;-60
2023/06/07 09:36:58;;;;;;;11.90;2.80;;;;;;;21.36;68.26;100427.67;110191;1274;22211;-60
2023/06/07 09:39:32;;;;;;;8.40;2.60;;;;;;;21.48;68.45;100422.82;110245;1272;22179;-60
2023/06/07 09:42:04;;;;;;;8.30;3.10;;;;;;;21.63;67.99;100420.45;110227;1271;22251;-60
2023/06/07 09:44:35;;;;;;;11.10;3.50;;;;;;;21.75;67.66;100420.46;110226;1270;22169;-60
2023/06/07 09:47:08;;;;;;;10.50;3.20;;;;;;;21.88;66.97;100418.54;110228;1278;23092;-60
2023/06/07 09:49:39;;;;;;;12.80;3.30;;;;;;;22.01;66.65;100411.95;110230;1270;22229;-60
2023/06/07 09:52:16;;;;;;;11.00;3.60;;;;;;;22.13;65.08;100416.43;110220;1273;23152;-59
2023/06/07 09:54:47;;;;;;;11.10;3.40;;;;;;;22.17;64.74;100416.61;110217;1266;22676;-60
2023/06/07 09:57:33;;;;;;;11.30;3.50;;;;;;;22.25;64.97;100410.61;110213;1274;22265;-60
2023/06/07 10:00:10;;;;;;;12.60;3.60;;;;;;;22.37;64.57;100409.19;110157;1272;22408;-59
2023/06/07 10:02:42;;;;;;;12.70;3.20;;;;;;;22.47;64.29;100408.43;110198;1273;22225;-60
2023/06/07 10:05:14;;;;;;;10.10;3.30;;;;;;;22.58;63.92;100409.23;110261;1270;22848;-60
2023/06/07 10:07:47;;;;;;;13.80;3.10;;;;;;;22.72;63.61;100406.35;110243;1278;22811;-60
2023/06/07 10:10:22;;;;;;;10.80;3.60;;;;;;;22.91;63.42;100402.90;110213;1265;22264;-60
2023/06/07 10:12:54;;;;;;;8.70;2.70;;;;;;;23.06;62.91;100404.14;110243;1273;22229;-59
2023/06/07 10:15:26;;;;;;;11.40;3.10;;;;;;;23.23;63.32;100403.08;110209;1271;22952;-59
2023/06/07 10:18:01;;;;;;;10.20;3.10;;;;;;;23.40;62.92;100394.40;110213;1272;22178;-60
2023/06/07 10:20:35;;;;;;;15.20;3.90;;;;;;;23.59;62.34;100394.23;110239;1262;22144;-59
2023/06/07 10:23:08;;;;;;;8.00;2.80;;;;;;;23.74;61.99;100391.71;110229;1278;22224;-60
2023/06/07 10:25:44;;;;;;;10.40;3.00;;;;;;;23.86;60.58;100393.85;110254;1272;22953;-60
2023/06/07 10:28:22;;;;;;;12.90;3.50;;;;;;;23.87;60.63;100388.11;110229;1267;22250;-60
2023/06/07 10:31:03;;;;;;;8.70;2.90;;;;;;;23.91;60.42;100389.61;110171;1267;22210;-60
2023/06/07 10:33:34;;;;;;;15.00;3.40;;;;;;;24.03;60.52;100386.81;110212;1261;22161;-60
2023/06/07 10:36:07;;;;;;;12.50;3.40;;;;;;;24.17;59.98;100387.20;110219;1270;22870;-61
2023/06/07 10:38:38;;;;;;;9.70;2.70;;;;;;;24.24;59.44;100380.92;110205;1272;22190;-60
2023/06/07 10:41:10;;;;;;;9.40;2.70;;;;;;;24.35;58.45;100377.92;110231;1276;22176;-60
2023/06/07 10:43:46;;;;;;;12.60;3.30;;;;;;;24.46;58.29;100376.15;110234;1278;22374;-60
2023/06/07 10:46:24;;;;;;;17.40;4.20;;;;;;;24.66;58.32;100373.83;110231;1271;22151;-61
2023/06/07 10:48:56;;;;;;;10.80;3.10;;;;;;;24.83;57.39;100364.48;110182;1265;22131;-60
2023/06/07 10:52:06;;;;;;;13.60;3.00;;;;;;;25.01;57.39;100360.48;110206;1267;22882;-61
2023/06/07 10:54:37;;;;;;;;;;;;;;;25.24;56.10;100352.89;110217;1262;22368;-61
2023/06/07 10:57:08;;;;;;;13.50;2.70;;;;;;;25.39;55.17;100351.79;110200;1271;23119;-61
2023/06/07 10:59:40;;;;;;;11.20;2.80;;;;;;;25.49;54.90;100351.41;110241;1270;22136;-60
2023/06/07 11:02:25;;;;;;;18.20;3.50;;;;;;;25.58;54.59;100348.23;110230;1271;22122;-60
2023/06/07 11:05:00;;;;;;;12.60;2.40;;;;;;;25.71;54.57;100344.77;106269;1260;23279;-60
2023/06/07 11:07:32;;;;;;;11.20;2.50;;;;;;;25.85;54.78;100340.44;106192;1271;22655;-60
2023/06/07 11:10:36;;;;;;;14.20;3.10;;;;;;;26.00;54.51;100336.24;106285;1256;22684;-60
2023/06/07 11:13:07;;;;;;;16.80;3.50;;;;;;;26.13;53.71;100335.13;110176;1271;22136;-59
2023/06/07 11:15:38;;;;;;;15.00;2.70;;;;;;;26.24;53.03;100334.09;110192;1273;22952;-60
2023/06/07 11:18:10;;;;;;;12.80;2.60;;;;;;;26.40;52.65;100334.29;110183;1264;22974;-60
2023/06/07 11:20:53;;;;;;;10.60;2.70;;;;;;;26.48;51.78;100331.98;110191;1271;22138;-60
2023/06/07 11:23:31;;;;;;;10.10;3.30;;;;;;;26.53;51.34;100328.36;110084;1270;23114;-60
2023/06/07 11:26:10;;;;;;;10.00;2.60;;;;;;;26.63;50.74;100329.38;110173;1276;23155;-61
2023/06/07 11:28:43;;;;;;;8.20;2.60;;;;;;;26.70;49.71;100330.64;110069;1278;22135;-61
2023/06/07 11:31:15;;;;;;;11.80;3.90;;;;;;;26.76;48.98;100333.86;110201;1267;22319;-61
2023/06/07 11:33:48;;;;;;;9.00;2.50;;;;;;;26.85;48.95;100330.91;110192;1271;22193;-61